createdAt,value
2023-05-11T00:00:35.372Z,2.65
2023-05-11T00:03:01.989Z,2.20
2023-05-11T00:05:28.704Z,2.20
2023-05-11T00:07:55.189Z,1.60
2023-05-11T00:10:21.678Z,1.80
2023-05-11T00:12:48.201Z,1.50
2023-05-11T00:15:14.713Z,1.58
2023-05-11T00:17:41.208Z,1.83
2023-05-11T00:20:08.001Z,1.27
2023-05-11T00:22:34.604Z,1.40
2023-05-11T00:25:01.080Z,1.73
2023-05-11T00:27:27.625Z,1.67
2023-05-11T00:29:54.095Z,1.80
2023-05-11T00:32:20.918Z,1.73
2023-05-11T00:34:47.466Z,1.60
2023-05-11T00:37:14.004Z,1.75
2023-05-11T00:39:40.902Z,1.95
2023-05-11T00:42:07.515Z,1.63
2023-05-11T00:44:34.170Z,1.83
2023-05-11T00:47:01.006Z,1.48
2023-05-11T00:49:27.839Z,1.55
2023-05-11T00:51:54.384Z,1.50
2023-05-11T00:54:21.268Z,1.40
2023-05-11T00:56:48.581Z,1.50
2023-05-11T00:59:15.144Z,1.60
2023-05-11T01:01:41.795Z,1.40
2023-05-11T01:04:08.683Z,1.70
2023-05-11T01:06:44.601Z,1.92
2023-05-11T01:09:20.487Z,1.40
2023-05-11T01:11:53.809Z,2.28
2023-05-11T01:14:23.095Z,2.50
2023-05-11T01:16:51.821Z,3.28
2023-05-11T01:19:39.703Z,2.83
2023-05-11T01:22:10.126Z,2.92
2023-05-11T01:24:45.544Z,4.35
2023-05-11T01:27:27.098Z,4.85
2023-05-11T01:30:12.198Z,4.35
2023-05-11T01:32:41.640Z,4.70
2023-05-11T01:35:14.746Z,5.00
2023-05-11T01:37:41.963Z,4.60
2023-05-11T01:40:13.810Z,5.13
2023-05-11T01:42:42.015Z,5.68
2023-05-11T01:45:10.516Z,6.35
2023-05-11T01:47:38.432Z,7.47
2023-05-11T01:50:06.301Z,5.57
2023-05-11T01:52:33.660Z,5.45
2023-05-11T01:55:01.889Z,6.28
2023-05-11T01:57:28.972Z,5.97
2023-05-11T01:59:55.972Z,6.75
2023-05-11T02:02:23.049Z,6.65
2023-05-11T02:04:50.350Z,8.50
2023-05-11T02:07:18.639Z,8.57
2023-05-11T02:09:46.112Z,8.52
2023-05-11T02:12:14.065Z,9.20
2023-05-11T02:14:41.550Z,8.93
2023-05-11T02:17:09.014Z,7.95
2023-05-11T02:19:36.734Z,6.95
2023-05-11T02:22:04.090Z,7.50
2023-05-11T02:24:31.120Z,7.93
2023-05-11T02:26:59.115Z,7.45
2023-05-11T02:29:26.374Z,9.77
2023-05-11T02:31:57.261Z,9.60
2023-05-11T02:34:26.888Z,10.85
2023-05-11T02:36:54.401Z,10.57
2023-05-11T02:39:23.908Z,10.15
2023-05-11T02:41:55.560Z,10.63
2023-05-11T02:44:22.792Z,11.48
2023-05-11T02:46:50.040Z,11.38
2023-05-11T02:49:18.550Z,10.57
2023-05-11T02:51:45.672Z,10.02
2023-05-11T02:54:13.053Z,10.70
2023-05-11T02:56:39.565Z,12.98
2023-05-11T02:59:06.485Z,10.88
2023-05-11T03:01:33.713Z,11.07
2023-05-11T03:04:00.346Z,10.75
2023-05-11T03:06:26.897Z,12.48
2023-05-11T03:08:53.453Z,9.85
2023-05-11T03:11:20.093Z,12.35
2023-05-11T03:13:46.979Z,11.20
2023-05-11T03:16:13.949Z,10.75
2023-05-11T03:18:40.790Z,12.18
2023-05-11T03:21:07.445Z,11.90
2023-05-11T03:23:35.231Z,12.73
2023-05-11T03:26:02.621Z,10.32
2023-05-11T03:28:29.925Z,11.80
2023-05-11T03:30:56.435Z,11.75
2023-05-11T03:33:23.392Z,12.27
2023-05-11T03:35:51.161Z,11.95
2023-05-11T03:38:18.518Z,12.45
2023-05-11T03:40:46.013Z,12.52
2023-05-11T03:43:14.978Z,11.93
2023-05-11T03:45:43.097Z,13.32
2023-05-11T03:48:10.447Z,13.85
2023-05-11T03:50:38.184Z,15.10
2023-05-11T03:53:04.982Z,15.82
2023-05-11T03:55:32.302Z,15.23
2023-05-11T03:57:58.917Z,14.95
2023-05-11T04:00:25.491Z,14.98
2023-05-11T04:02:52.305Z,12.43
2023-05-11T04:05:19.312Z,13.88
2023-05-11T04:07:46.409Z,10.85
2023-05-11T04:10:12.938Z,11.75
2023-05-11T04:12:39.446Z,8.43
2023-05-11T04:15:06.793Z,9.63
2023-05-11T04:17:33.558Z,8.68
2023-05-11T04:20:00.138Z,10.07
2023-05-11T04:22:26.745Z,9.88
2023-05-11T04:24:53.238Z,9.38
2023-05-11T04:27:19.772Z,9.98
2023-05-11T04:29:46.318Z,9.35
2023-05-11T04:32:12.808Z,9.60
2023-05-11T04:34:39.514Z,10.13
2023-05-11T04:37:07.544Z,9.00
2023-05-11T04:39:34.761Z,9.38
2023-05-11T04:42:02.018Z,8.93
2023-05-11T04:44:28.552Z,10.65
2023-05-11T04:46:55.752Z,9.10
2023-05-11T04:49:22.341Z,9.23
2023-05-11T04:51:48.844Z,8.40
2023-05-11T04:54:15.342Z,7.90
2023-05-11T04:56:41.854Z,7.93
2023-05-11T04:59:08.466Z,8.13
2023-05-11T05:01:35.118Z,7.45
2023-05-11T05:04:01.835Z,7.53
2023-05-11T05:06:28.360Z,7.93
2023-05-11T05:08:54.824Z,6.22
2023-05-11T05:11:21.737Z,7.38
2023-05-11T05:13:48.226Z,6.43
2023-05-11T05:16:14.847Z,6.20
2023-05-11T05:18:41.432Z,5.85
2023-05-11T05:21:07.955Z,7.13
2023-05-11T05:23:34.468Z,7.88
2023-05-11T05:26:00.971Z,7.55
2023-05-11T05:28:27.534Z,6.18
2023-05-11T05:30:54.123Z,7.90
2023-05-11T05:33:20.647Z,8.18
2023-05-11T05:35:47.311Z,8.43
2023-05-11T05:38:13.860Z,9.77
2023-05-11T05:40:40.548Z,7.40
2023-05-11T05:43:07.028Z,7.93
2023-05-11T05:45:33.534Z,8.95
2023-05-11T05:48:03.102Z,9.43
2023-05-11T05:50:29.752Z,8.35
2023-05-11T05:52:56.304Z,8.68
2023-05-11T05:55:22.860Z,8.45
2023-05-11T05:57:49.862Z,8.82
2023-05-11T06:00:16.622Z,8.82
2023-05-11T06:02:43.330Z,7.85
2023-05-11T06:05:10.091Z,8.23
2023-05-11T06:07:36.682Z,9.90
2023-05-11T06:10:03.587Z,8.70
2023-05-11T06:12:30.062Z,8.27
2023-05-11T06:14:56.576Z,7.90
2023-05-11T06:17:23.166Z,7.05
2023-05-11T06:19:49.960Z,6.30
2023-05-11T06:22:16.579Z,7.20
2023-05-11T06:24:43.062Z,6.97
2023-05-11T06:27:09.641Z,7.00
2023-05-11T06:29:36.177Z,6.45
2023-05-11T06:32:02.716Z,7.80
2023-05-11T06:34:29.250Z,6.25
2023-05-11T06:36:58.776Z,6.97
2023-05-11T06:39:25.388Z,7.55
2023-05-11T06:41:55.065Z,6.90
2023-05-11T06:44:22.467Z,7.07
2023-05-11T06:46:48.960Z,8.27
2023-05-11T06:49:15.529Z,6.35
2023-05-11T06:51:42.019Z,7.10
2023-05-11T06:54:08.504Z,5.60
2023-05-11T06:56:35.121Z,7.00
2023-05-11T06:59:01.667Z,6.50
2023-05-11T07:01:28.408Z,7.03
2023-05-11T07:03:55.205Z,6.13
2023-05-11T07:06:21.881Z,6.85
2023-05-11T07:08:48.457Z,6.70
2023-05-11T07:11:15.620Z,5.28
2023-05-11T07:13:42.510Z,6.00
2023-05-11T07:16:09.051Z,6.78
2023-05-11T07:18:35.550Z,5.60
2023-05-11T07:21:02.049Z,5.88
2023-05-11T07:23:28.590Z,5.75
2023-05-11T07:25:57.516Z,6.53
2023-05-11T07:28:24.274Z,7.35
2023-05-11T07:30:50.871Z,6.82
2023-05-11T07:33:17.362Z,6.28
2023-05-11T07:35:43.896Z,6.00
2023-05-11T07:38:11.989Z,6.68
2023-05-11T07:40:38.485Z,6.68
2023-05-11T07:43:04.999Z,5.70
2023-05-11T07:45:31.609Z,6.65
2023-05-11T07:47:58.184Z,6.25
2023-05-11T07:50:25.063Z,6.47
2023-05-11T07:52:52.680Z,7.25
2023-05-11T07:55:20.511Z,5.70
2023-05-11T07:57:47.224Z,6.38
2023-05-11T08:00:14.062Z,5.78
2023-05-11T08:02:40.694Z,6.15
2023-05-11T08:05:08.300Z,6.57
2023-05-11T08:07:34.859Z,6.55
2023-05-11T08:10:01.409Z,6.43
2023-05-11T08:12:28.149Z,6.72
2023-05-11T08:14:55.422Z,6.53
2023-05-11T08:17:21.935Z,7.07
2023-05-11T08:19:48.783Z,6.65
2023-05-11T08:22:15.285Z,6.63
2023-05-11T08:24:42.034Z,7.85
2023-05-11T08:27:08.717Z,7.18
2023-05-11T08:29:35.204Z,7.00
2023-05-11T08:32:02.302Z,6.53
2023-05-11T08:34:28.957Z,7.32
2023-05-11T08:36:56.102Z,7.10
2023-05-11T08:39:43.292Z,6.80
2023-05-11T08:42:10.009Z,6.60
2023-05-11T08:44:38.696Z,5.70
2023-05-11T08:47:22.004Z,5.70
2023-05-11T08:49:50.485Z,4.43
2023-05-11T08:52:18.389Z,5.82
2023-05-11T08:54:45.266Z,5.30
2023-05-11T08:57:13.431Z,4.95
2023-05-11T08:59:41.562Z,6.00
2023-05-11T09:02:10.809Z,4.63
2023-05-11T09:04:37.389Z,4.65
2023-05-11T09:07:04.449Z,4.75
2023-05-11T09:09:31.207Z,4.97
2023-05-11T09:11:58.147Z,4.90
2023-05-11T09:14:27.681Z,5.88
2023-05-11T09:16:54.484Z,7.47
2023-05-11T09:19:21.941Z,8.13
2023-05-11T09:21:48.483Z,7.70
2023-05-11T09:24:15.047Z,8.85
2023-05-11T09:26:41.598Z,9.73
2023-05-11T09:29:08.132Z,10.45
2023-05-11T09:31:42.028Z,9.02
2023-05-11T09:36:34.897Z,8.93
2023-05-11T09:39:04.350Z,7.95
2023-05-11T09:41:34.997Z,9.35
2023-05-11T09:44:10.196Z,9.30
2023-05-11T09:46:37.734Z,9.23
2023-05-11T09:49:04.828Z,9.95
2023-05-11T09:51:33.077Z,9.90
2023-05-11T09:54:00.839Z,9.27
2023-05-11T09:56:44.217Z,8.85
2023-05-11T09:59:13.061Z,8.80
2023-05-11T10:01:40.102Z,9.82
2023-05-11T10:04:22.028Z,8.48
2023-05-11T10:06:50.317Z,10.00
2023-05-11T10:09:17.492Z,8.82
2023-05-11T10:11:45.732Z,9.73
2023-05-11T10:14:13.366Z,9.60
2023-05-11T10:16:43.773Z,10.82
2023-05-11T10:19:11.101Z,10.57
2023-05-11T10:21:38.614Z,12.68
2023-05-11T10:24:05.799Z,11.77
2023-05-11T10:26:32.985Z,9.90
2023-05-11T10:29:00.670Z,11.45
2023-05-11T10:31:27.646Z,10.95
2023-05-11T10:33:54.881Z,11.30
2023-05-11T10:36:23.372Z,11.05
2023-05-11T10:38:49.915Z,10.48
2023-05-11T10:41:36.665Z,10.70
2023-05-11T10:44:21.574Z,11.25
2023-05-11T10:46:51.090Z,10.95
2023-05-11T10:49:40.673Z,13.80
2023-05-11T10:52:31.106Z,14.25
2023-05-11T10:55:00.689Z,13.07
2023-05-11T10:57:56.543Z,14.00
2023-05-11T11:00:43.903Z,13.05
2023-05-11T11:03:14.539Z,14.73
2023-05-11T11:05:43.880Z,14.63
2023-05-11T11:08:10.982Z,14.10
2023-05-11T11:10:37.527Z,15.00
2023-05-11T11:13:08.303Z,12.88
2023-05-11T11:15:52.959Z,12.98
2023-05-11T11:18:23.134Z,13.55
2023-05-11T11:20:53.571Z,13.45
2023-05-11T11:23:43.219Z,14.05
2023-05-11T11:26:10.696Z,12.90
2023-05-11T11:29:01.751Z,12.07
2023-05-11T11:31:29.976Z,13.27
2023-05-11T11:33:59.223Z,12.27
2023-05-11T11:36:44.698Z,11.30
2023-05-11T11:39:11.197Z,12.43
2023-05-11T11:41:38.184Z,14.13
2023-05-11T11:44:04.893Z,14.07
2023-05-11T11:46:31.656Z,15.52
2023-05-11T11:49:08.329Z,15.40
2023-05-11T11:51:35.143Z,13.18
2023-05-11T11:54:01.668Z,11.45
2023-05-11T11:56:28.119Z,11.35
2023-05-11T11:59:01.333Z,10.45
2023-05-11T12:01:29.272Z,9.93
2023-05-11T12:04:05.715Z,12.27
2023-05-11T12:06:37.171Z,12.38
2023-05-11T12:09:05.065Z,10.45
2023-05-11T12:11:32.887Z,10.43
2023-05-11T12:14:00.105Z,11.93
2023-05-11T12:16:26.763Z,10.52
2023-05-11T12:18:56.785Z,9.30
2023-05-11T12:21:26.258Z,9.25
2023-05-11T12:23:53.050Z,9.43
2023-05-11T12:26:20.057Z,11.50
2023-05-11T12:28:49.660Z,11.20
2023-05-11T12:31:17.358Z,9.75
2023-05-11T12:33:47.782Z,12.48
2023-05-11T12:36:15.504Z,10.32
2023-05-11T12:38:48.790Z,10.27
2023-05-11T12:41:24.266Z,10.73
2023-05-11T12:43:51.404Z,9.52
2023-05-11T12:46:18.963Z,11.05
2023-05-11T12:48:46.068Z,10.35
2023-05-11T12:51:12.653Z,12.88
2023-05-11T12:53:39.680Z,12.38
2023-05-11T12:56:06.368Z,11.27
2023-05-11T12:58:36.700Z,9.77
2023-05-11T13:01:03.261Z,11.18
2023-05-11T13:03:31.522Z,10.18
2023-05-11T13:06:09.078Z,9.82
2023-05-11T13:08:37.112Z,10.48
2023-05-11T13:11:24.768Z,10.68
2023-05-11T13:13:52.255Z,10.70
2023-05-11T13:16:29.273Z,8.68
2023-05-11T13:19:04.205Z,9.60
2023-05-11T13:21:33.435Z,8.60
2023-05-11T13:24:00.523Z,6.50
2023-05-11T13:26:29.232Z,7.82
2023-05-11T13:29:09.650Z,6.72
2023-05-11T13:31:47.563Z,10.15
2023-05-11T13:34:14.556Z,8.98
2023-05-11T13:36:41.114Z,9.23
2023-05-11T13:39:07.626Z,9.68
2023-05-11T13:41:34.172Z,10.20
2023-05-11T13:44:00.771Z,9.32
2023-05-11T13:46:27.410Z,10.15
2023-05-11T13:48:54.946Z,10.70
2023-05-11T13:51:21.935Z,9.73
2023-05-11T13:53:48.622Z,20.20
2023-05-11T13:56:16.544Z,9.48
2023-05-11T13:58:43.093Z,8.80
2023-05-11T14:01:09.664Z,9.07
2023-05-11T14:03:36.266Z,8.82
2023-05-11T14:06:03.073Z,9.00
2023-05-11T14:08:29.606Z,8.80
2023-05-11T14:10:56.148Z,8.45
2023-05-11T14:13:23.010Z,7.10
2023-05-11T14:15:49.648Z,8.02
2023-05-11T14:18:16.285Z,9.15
2023-05-11T14:20:43.404Z,7.15
2023-05-11T14:23:09.951Z,9.15
2023-05-11T14:25:36.570Z,10.40
2023-05-11T14:28:03.088Z,11.23
2023-05-11T14:30:29.565Z,11.35
2023-05-11T14:32:56.396Z,10.20
2023-05-11T14:35:22.932Z,10.02
2023-05-11T14:37:49.489Z,11.27
2023-05-11T14:40:15.966Z,11.52
2023-05-11T14:42:42.513Z,10.65
2023-05-11T14:45:09.338Z,11.18
2023-05-11T14:47:36.051Z,10.35
2023-05-11T14:50:02.844Z,10.65
2023-05-11T14:52:29.438Z,11.00
2023-05-11T14:54:56.121Z,9.63
2023-05-11T14:57:22.706Z,8.98
2023-05-11T14:59:59.135Z,10.82
2023-05-11T15:02:26.581Z,10.20
2023-05-11T15:04:53.119Z,9.05
2023-05-11T15:07:19.606Z,9.10
2023-05-11T15:09:46.134Z,9.30
2023-05-11T15:12:12.658Z,8.57
2023-05-11T15:14:39.228Z,9.73
2023-05-11T15:17:05.822Z,7.85
2023-05-11T15:19:32.345Z,10.15
2023-05-11T15:21:58.888Z,9.57
2023-05-11T15:24:25.473Z,9.88
2023-05-11T15:26:52.062Z,8.73
2023-05-11T15:29:19.170Z,9.65
2023-05-11T15:31:45.739Z,9.90
2023-05-11T15:34:12.359Z,10.63
2023-05-11T15:36:39.109Z,11.25
2023-05-11T15:39:05.586Z,11.13
2023-05-11T15:41:32.109Z,11.75
2023-05-11T15:43:58.582Z,11.40
2023-05-11T15:46:25.069Z,13.43
2023-05-11T15:48:52.029Z,13.05
2023-05-11T15:51:18.988Z,13.40
2023-05-11T15:53:45.850Z,12.75
2023-05-11T15:56:12.332Z,13.27
2023-05-11T15:58:38.852Z,12.20
2023-05-11T16:01:06.121Z,14.30
2023-05-11T16:03:32.780Z,14.02
2023-05-11T16:05:59.489Z,12.60
2023-05-11T16:08:26.043Z,14.00
2023-05-11T16:10:52.707Z,12.68
2023-05-11T16:13:19.259Z,14.30
2023-05-11T16:15:45.736Z,12.85
2023-05-11T16:18:14.103Z,11.98
2023-05-11T16:20:40.689Z,13.13
2023-05-11T16:23:07.296Z,12.23
2023-05-11T16:25:33.821Z,13.98
2023-05-11T16:28:00.350Z,14.15
2023-05-11T16:30:27.129Z,13.73
2023-05-11T16:32:54.112Z,13.73
2023-05-11T16:35:20.941Z,13.90
2023-05-11T16:37:48.082Z,13.30
2023-05-11T16:40:14.975Z,12.95
2023-05-11T16:42:41.614Z,13.63
2023-05-11T16:45:08.338Z,12.30
2023-05-11T16:47:34.884Z,12.88
2023-05-11T16:50:01.433Z,11.95
2023-05-11T16:52:27.945Z,14.38
2023-05-11T16:54:55.319Z,13.45
2023-05-11T16:57:25.230Z,13.25
2023-05-11T16:59:51.826Z,13.70
2023-05-11T17:02:19.965Z,12.85
2023-05-11T17:04:46.546Z,13.70
2023-05-11T17:07:14.903Z,12.02
2023-05-11T17:09:41.629Z,11.93
2023-05-11T17:12:09.693Z,12.70
2023-05-11T17:14:36.472Z,11.50
2023-05-11T17:17:07.579Z,11.02
2023-05-11T17:19:34.660Z,12.05
2023-05-11T17:22:01.188Z,10.88
2023-05-11T17:24:28.636Z,11.13
2023-05-11T17:26:55.389Z,10.13
2023-05-11T17:29:21.877Z,10.95
2023-05-11T17:31:49.084Z,11.32
2023-05-11T17:34:16.164Z,10.13
2023-05-11T17:36:42.926Z,11.90
2023-05-11T17:39:10.215Z,11.90
2023-05-11T17:41:36.893Z,12.95
2023-05-11T17:44:04.386Z,13.43
2023-05-11T17:46:31.012Z,14.40
2023-05-11T17:48:57.602Z,12.90
2023-05-11T17:51:24.121Z,13.35
2023-05-11T17:53:50.675Z,14.02
2023-05-11T17:56:17.370Z,14.00
2023-05-11T17:58:43.956Z,15.40
2023-05-11T18:01:12.665Z,15.98
2023-05-11T18:03:39.288Z,17.17
2023-05-11T18:06:06.079Z,16.98
2023-05-11T18:08:33.004Z,17.25
2023-05-11T18:10:59.588Z,17.08
2023-05-11T18:13:26.494Z,16.75
2023-05-11T18:15:53.736Z,15.30
2023-05-11T18:18:20.293Z,13.88
2023-05-11T18:20:46.830Z,14.82
2023-05-11T18:23:14.102Z,12.95
2023-05-11T18:25:40.961Z,12.57
2023-05-11T18:28:07.471Z,11.35
2023-05-11T18:30:34.721Z,12.93
2023-05-11T18:33:01.837Z,12.15
2023-05-11T18:35:28.477Z,14.13
2023-05-11T18:37:55.477Z,13.75
2023-05-11T18:40:22.449Z,12.07
2023-05-11T18:42:49.136Z,13.80
2023-05-11T18:45:17.466Z,13.80
2023-05-11T18:47:46.274Z,14.43
2023-05-11T18:50:13.098Z,14.55
2023-05-11T18:52:39.584Z,16.05
2023-05-11T18:55:06.329Z,14.55
2023-05-11T18:57:34.747Z,15.30
2023-05-11T19:00:01.718Z,14.68
2023-05-11T19:02:28.433Z,15.27
2023-05-11T19:04:55.111Z,16.92
2023-05-11T19:07:21.619Z,15.10
2023-05-11T19:09:48.138Z,14.77
2023-05-11T19:12:14.645Z,14.25
2023-05-11T19:14:41.228Z,13.43
2023-05-11T19:17:07.770Z,13.00
2023-05-11T19:19:35.643Z,14.07
2023-05-11T19:22:02.224Z,13.00
2023-05-11T19:24:28.901Z,13.60
2023-05-11T19:27:06.610Z,14.38
2023-05-11T19:29:35.040Z,13.18
2023-05-11T19:32:01.697Z,12.55
2023-05-11T19:34:28.321Z,13.60
2023-05-11T19:36:54.834Z,14.25
2023-05-11T19:39:21.399Z,13.68
2023-05-11T19:41:47.896Z,13.60
2023-05-11T19:44:14.433Z,14.77
2023-05-11T19:46:46.468Z,13.82
2023-05-11T19:49:13.756Z,13.02
2023-05-11T19:51:40.283Z,13.20
2023-05-11T19:54:06.782Z,14.00
2023-05-11T19:56:33.851Z,14.07
2023-05-11T19:59:00.448Z,12.52
2023-05-11T20:01:27.381Z,14.20
2023-05-11T20:03:54.071Z,11.25
2023-05-11T20:06:20.765Z,11.45
2023-05-11T20:08:48.816Z,13.13
2023-05-11T20:11:15.666Z,14.48
2023-05-11T20:13:44.005Z,13.13
2023-05-11T20:16:10.842Z,22.17
2023-05-11T20:18:37.585Z,11.43
2023-05-11T20:21:04.422Z,12.95
2023-05-11T20:23:30.956Z,12.40
2023-05-11T20:25:57.524Z,11.65
2023-05-11T20:28:27.291Z,11.27
2023-05-11T20:30:54.944Z,12.30
2023-05-11T20:35:53.209Z,11.13
2023-05-11T20:38:20.188Z,10.80
2023-05-11T20:40:46.715Z,10.95
2023-05-11T20:43:14.514Z,12.48
2023-05-11T20:45:41.889Z,11.20
2023-05-11T20:48:08.559Z,11.52
2023-05-11T20:50:35.163Z,11.85
2023-05-11T20:53:01.739Z,12.75
2023-05-11T20:55:28.288Z,12.93
2023-05-11T20:57:54.818Z,13.60
2023-05-11T21:00:21.902Z,14.10
2023-05-11T21:02:48.769Z,12.60
2023-05-11T21:05:15.464Z,13.23
2023-05-11T21:07:42.161Z,11.07
2023-05-11T21:10:10.661Z,11.27
2023-05-11T21:12:37.172Z,10.93
2023-05-11T21:15:03.831Z,13.13
2023-05-11T21:17:30.448Z,10.80
2023-05-11T21:19:56.954Z,10.63
2023-05-11T21:22:23.500Z,10.13
2023-05-11T21:24:50.055Z,12.98
2023-05-11T21:27:16.533Z,13.55
2023-05-11T21:29:43.070Z,11.27
2023-05-11T21:32:10.295Z,11.77
2023-05-11T21:34:36.837Z,12.70
2023-05-11T21:37:03.637Z,11.65
2023-05-11T21:39:30.131Z,12.30
2023-05-11T21:41:56.990Z,11.95
2023-05-11T21:44:23.526Z,12.73
2023-05-11T21:46:50.619Z,12.65
2023-05-11T21:49:17.352Z,11.77
2023-05-11T21:51:43.938Z,12.85
2023-05-11T21:54:12.715Z,9.98
2023-05-11T21:56:39.266Z,11.15
2023-05-11T21:59:05.755Z,11.73
2023-05-11T22:01:32.604Z,10.75
2023-05-11T22:04:01.186Z,12.07
2023-05-11T22:06:27.828Z,11.25
2023-05-11T22:08:54.289Z,10.30
2023-05-11T22:11:21.732Z,10.65
2023-05-11T22:13:48.287Z,10.07
2023-05-11T22:16:14.829Z,10.60
2023-05-11T22:18:41.419Z,10.40
2023-05-11T22:21:08.037Z,10.57
2023-05-11T22:23:35.434Z,11.32
2023-05-11T22:26:02.330Z,11.45
2023-05-11T22:28:29.907Z,10.63
2023-05-11T22:30:59.600Z,10.48
2023-05-11T22:33:26.893Z,9.68
2023-05-11T22:35:53.370Z,11.60
2023-05-11T22:38:19.885Z,11.52
2023-05-11T22:40:46.348Z,11.38
2023-05-11T22:43:12.817Z,9.98
2023-05-11T22:45:39.352Z,13.95
2023-05-11T22:48:06.758Z,11.52
2023-05-11T22:50:33.359Z,12.32
2023-05-11T22:52:59.844Z,12.07
2023-05-11T22:55:26.364Z,10.90
2023-05-11T22:57:52.866Z,10.82
2023-05-11T23:00:19.672Z,11.32
2023-05-11T23:02:46.745Z,11.00
2023-05-11T23:05:13.795Z,11.82
2023-05-11T23:07:40.337Z,11.88
2023-05-11T23:10:07.672Z,11.15
2023-05-11T23:12:34.370Z,12.90
2023-05-11T23:15:01.081Z,13.15
2023-05-11T23:17:27.805Z,12.02
2023-05-11T23:19:54.363Z,11.27
2023-05-11T23:22:20.853Z,11.52
2023-05-11T23:24:47.560Z,14.70
2023-05-11T23:27:14.200Z,14.38
2023-05-11T23:29:40.741Z,15.10
2023-05-11T23:32:07.370Z,13.40
2023-05-11T23:34:33.890Z,15.02
2023-05-11T23:37:00.507Z,12.07
2023-05-11T23:39:27.010Z,12.85
2023-05-11T23:41:53.545Z,11.23
2023-05-11T23:44:20.336Z,9.20
2023-05-11T23:46:46.954Z,9.52
2023-05-11T23:49:13.502Z,9.60
2023-05-11T23:51:39.977Z,8.43
2023-05-11T23:54:06.985Z,8.38
2023-05-11T23:56:33.728Z,8.70
2023-05-11T23:59:00.268Z,9.70
